Time;durP1;ratioP1;P1;durP2;ratioP2;P2;SDS_P1;SDS_P2;PMS_P1;PMS_P2;Temp;Humidity;BMP_temperature;BMP_pressure;BME280_temperature;BME280_humidity;BME280_pressure;Samples;Min_cycle;Max_cycle;Signal;HPM_P1;HPM_P2
2024/01/21 00:00:08;;;;;;;38.47;30.20;;;-3.20;99.90;;;;;;4953611;28;20565;-71
2024/01/21 00:02:40;;;;;;;43.40;31.42;;;-3.20;99.90;;;;;;4969962;28;20506;-70
2024/01/21 00:05:07;;;;;;;44.40;30.58;;;-3.30;99.90;;;;;;4963672;28;20710;-70
2024/01/21 00:07:34;;;;;;;44.80;31.50;;;-3.20;99.90;;;;;;4970852;28;20144;-71
2024/01/21 00:10:01;;;;;;;39.28;31.08;;;-3.20;99.90;;;;;;4971273;28;20149;-72
2024/01/21 00:12:28;;;;;;;40.65;31.00;;;-3.30;99.90;;;;;;4970665;28;20046;-71
2024/01/21 00:14:54;;;;;;;42.65;31.35;;;-3.30;99.90;;;;;;4961322;28;20831;-71
2024/01/21 00:17:21;;;;;;;39.65;30.63;;;-3.30;99.90;;;;;;4972432;28;20038;-72
2024/01/21 00:19:48;;;;;;;43.25;30.85;;;-3.30;99.90;;;;;;4968318;28;20050;-71
2024/01/21 00:22:15;;;;;;;38.92;29.02;;;-3.20;99.90;;;;;;4967187;28;20619;-70
2024/01/21 00:24:41;;;;;;;33.45;28.65;;;-3.20;99.90;;;;;;4969916;28;20050;-71
2024/01/21 00:27:08;;;;;;;37.00;29.55;;;-3.10;99.90;;;;;;4970168;28;20046;-71
2024/01/21 00:29:36;;;;;;;37.72;29.77;;;-3.10;99.90;;;;;;4955966;28;20524;-69
2024/01/21 00:32:03;;;;;;;29.85;26.70;;;-3.00;99.90;;;;;;4966989;28;20053;-71
2024/01/21 00:34:29;;;;;;;28.15;25.45;;;-2.90;99.90;;;;;;4974120;28;20727;-71
2024/01/21 00:36:56;;;;;;;29.65;26.80;;;-2.80;99.90;;;;;;4971453;28;20470;-71
2024/01/21 00:39:23;;;;;;;29.08;25.98;;;-2.60;99.90;;;;;;4972365;28;20039;-72
2024/01/21 00:41:50;;;;;;;28.45;25.60;;;-2.40;99.90;;;;;;4967303;28;20697;-72
2024/01/21 00:44:31;;;;;;;30.05;25.80;;;-2.30;99.90;;;;;;4966192;28;20057;-71
2024/01/21 00:46:58;;;;;;;30.77;27.08;;;-2.20;99.90;;;;;;4963651;28;20054;-71
2024/01/21 00:49:25;;;;;;;30.05;26.98;;;-2.10;99.90;;;;;;4974062;28;20046;-71
2024/01/21 00:51:52;;;;;;;29.55;26.52;;;-2.10;99.90;;;;;;4954403;28;20042;-70
2024/01/21 00:54:19;;;;;;;28.65;25.85;;;-2.10;99.90;;;;;;4952904;28;20599;-70
2024/01/21 00:56:45;;;;;;;30.00;26.40;;;-2.30;99.90;;;;;;4974058;28;20042;-72
2024/01/21 00:59:13;;;;;;;29.13;26.20;;;-2.40;99.90;;;;;;4970866;28;20061;-70
2024/01/21 01:01:40;;;;;;;32.13;27.13;;;-2.40;99.90;;;;;;4967668;28;20042;-70
2024/01/21 01:04:07;;;;;;;31.08;27.85;;;-2.30;99.90;;;;;;4960476;28;20042;-70
2024/01/21 01:06:34;;;;;;;32.58;28.88;;;-2.20;99.90;;;;;;4966458;28;20095;-71
2024/01/21 01:09:00;;;;;;;32.03;28.58;;;-2.20;99.90;;;;;;4968339;28;20849;-71
2024/01/21 01:11:27;;;;;;;31.35;28.15;;;-2.10;99.90;;;;;;4973024;28;20042;-72
2024/01/21 01:13:54;;;;;;;29.10;26.10;;;-2.10;99.90;;;;;;4963147;28;20053;-71
2024/01/21 01:16:22;;;;;;;32.00;28.50;;;-2.00;99.90;;;;;;4986141;28;20042;-72
2024/01/21 01:18:49;;;;;;;30.70;27.55;;;-1.90;99.90;;;;;;4970100;28;20735;-72
2024/01/21 01:21:17;;;;;;;31.77;26.65;;;-1.80;99.90;;;;;;4972613;28;20113;-72
2024/01/21 01:23:43;;;;;;;30.58;27.27;;;-1.70;99.90;;;;;;4965215;28;20067;-71
2024/01/21 01:26:10;;;;;;;30.05;26.95;;;-1.60;99.90;;;;;;4984174;28;21294;-72
2024/01/21 01:28:37;;;;;;;29.30;26.60;;;-1.60;99.90;;;;;;4972828;28;20054;-72
2024/01/21 01:31:07;;;;;;;34.28;29.05;;;-1.60;99.90;;;;;;4981408;28;20046;-73
2024/01/21 01:33:33;;;;;;;32.10;28.70;;;-1.60;99.90;;;;;;4972540;28;20560;-74
2024/01/21 01:36:00;;;;;;;41.67;27.85;;;-1.60;99.90;;;;;;4970105;28;20054;-74
2024/01/21 01:38:27;;;;;;;30.25;27.17;;;-1.70;99.90;;;;;;4976686;28;20046;-74
2024/01/21 01:40:57;;;;;;;33.88;29.00;;;-1.80;99.90;;;;;;4952474;28;20043;-74
2024/01/21 01:43:24;;;;;;;32.72;29.33;;;-1.80;99.90;;;;;;4972856;28;20035;-75
2024/01/21 01:45:51;;;;;;;34.67;29.90;;;-1.90;99.90;;;;;;4968785;28;20054;-74
2024/01/21 01:48:20;;;;;;;30.02;26.90;;;-1.90;99.90;;;;;;4976337;28;20050;-74
2024/01/21 01:50:47;;;;;;;31.73;28.35;;;-1.90;99.90;;;;;;4974083;28;20054;-74
2024/01/21 01:53:16;;;;;;;34.17;30.20;;;-1.80;99.90;;;;;;4983384;28;20490;-75
2024/01/21 01:55:46;;;;;;;31.30;28.05;;;-1.90;99.90;;;;;;4970184;28;20038;-74
2024/01/21 01:58:15;;;;;;;33.25;29.60;;;-2.00;99.90;;;;;;4974886;28;20944;-72
2024/01/21 02:00:47;;;;;;;34.35;30.45;;;-2.10;99.90;;;;;;4971275;28;20067;-71
2024/01/21 02:03:15;;;;;;;34.28;26.73;;;-2.20;99.90;;;;;;4981385;28;20050;-71
2024/01/21 02:05:42;;;;;;;32.30;28.50;;;-2.20;99.90;;;;;;4973093;28;20049;-72
2024/01/21 02:08:09;;;;;;;35.42;27.52;;;-2.10;99.90;;;;;;4973016;28;20046;-71
2024/01/21 02:10:35;;;;;;;31.52;28.38;;;-2.10;99.90;;;;;;4975545;28;20054;-70
2024/01/21 02:13:02;;;;;;;33.92;28.60;;;-2.20;99.90;;;;;;4975872;28;21508;-71
2024/01/21 02:15:29;;;;;;;31.45;28.10;;;-2.20;99.90;;;;;;4974857;28;20050;-71
2024/01/21 02:17:56;;;;;;;33.90;28.10;;;-2.20;99.90;;;;;;5000032;28;20050;-69
2024/01/21 02:20:23;;;;;;;38.17;30.27;;;-2.20;99.90;;;;;;4994353;28;20035;-70
2024/01/21 02:22:50;;;;;;;37.60;30.35;;;-2.20;99.90;;;;;;4990034;28;20053;-74
2024/01/21 02:25:17;;;;;;;36.58;29.85;;;-2.10;99.90;;;;;;4978593;28;20042;-73
2024/01/21 02:27:45;;;;;;;30.52;27.27;;;-2.10;99.90;;;;;;4982008;28;20076;-73
2024/01/21 02:30:12;;;;;;;32.75;29.17;;;-2.10;99.90;;;;;;4969926;28;20054;-72
2024/01/21 02:32:39;;;;;;;35.53;28.88;;;-2.20;99.90;;;;;;4975116;28;20065;-74
2024/01/21 02:35:06;;;;;;;36.20;29.52;;;-2.10;99.90;;;;;;4969328;28;20050;-74
2024/01/21 02:37:33;;;;;;;31.95;27.85;;;-2.10;99.90;;;;;;4975878;28;20051;-73
2024/01/21 02:40:00;;;;;;;30.85;27.33;;;-2.10;99.90;;;;;;4964575;28;20039;-73
2024/01/21 02:42:26;;;;;;;34.35;28.05;;;-2.00;99.90;;;;;;4971002;28;20046;-74
2024/01/21 02:44:57;;;;;;;32.15;28.50;;;-2.00;99.90;;;;;;4963907;28;20053;-73
2024/01/21 02:47:24;;;;;;;32.05;28.52;;;-2.00;99.90;;;;;;4936245;28;20043;-74
2024/01/21 02:49:51;;;;;;;35.75;28.45;;;-2.00;99.90;;;;;;4953691;28;20043;-72
2024/01/21 02:52:18;;;;;;;36.30;30.38;;;-2.00;99.90;;;;;;4940764;28;20053;-72
2024/01/21 02:54:45;;;;;;;33.45;28.13;;;-2.00;99.90;;;;;;4948988;28;20555;-68
2024/01/21 02:57:12;;;;;;;31.75;28.58;;;-2.00;99.90;;;;;;4972838;28;20074;-69
2024/01/21 02:59:39;;;;;;;35.05;28.30;;;-2.00;99.90;;;;;;4958486;28;20035;-70
2024/01/21 03:02:06;;;;;;;39.53;30.27;;;-2.10;99.90;;;;;;4951825;28;20062;-71
2024/01/21 03:04:33;;;;;;;33.15;28.15;;;-2.00;99.90;;;;;;4963363;28;20055;-71
2024/01/21 03:06:59;;;;;;;33.50;27.67;;;-2.00;99.90;;;;;;4963654;28;20049;-70
2024/01/21 03:09:26;;;;;;;32.35;28.30;;;-2.10;99.90;;;;;;4985187;28;20610;-70
2024/01/21 03:11:56;;;;;;;36.00;30.42;;;-2.10;99.90;;;;;;4966431;28;20038;-70
2024/01/21 03:14:23;;;;;;;31.42;27.95;;;-2.20;99.90;;;;;;4968002;28;20657;-70
2024/01/21 03:16:50;;;;;;;33.97;27.25;;;-2.20;99.90;;;;;;4964385;28;20046;-71
2024/01/21 03:19:16;;;;;;;33.45;29.02;;;-2.20;99.90;;;;;;4973367;28;20046;-69
2024/01/21 03:21:43;;;;;;;36.35;29.05;;;-2.20;99.90;;;;;;4960195;28;20042;-69
2024/01/21 03:24:10;;;;;;;35.20;29.15;;;-2.30;99.90;;;;;;4966511;28;20050;-70
2024/01/21 03:26:39;;;;;;;34.78;28.45;;;-2.20;99.90;;;;;;4973491;28;20042;-70
2024/01/21 03:29:05;;;;;;;32.95;29.45;;;-2.20;99.90;;;;;;4969761;28;20512;-70
2024/01/21 03:31:33;;;;;;;31.23;27.83;;;-2.30;99.90;;;;;;4966909;28;20060;-70
2024/01/21 03:33:59;;;;;;;34.65;28.80;;;-2.30;99.90;;;;;;4967316;28;20503;-69
2024/01/21 03:36:26;;;;;;;32.50;29.17;;;-2.30;99.90;;;;;;4987511;28;20128;-72
2024/01/21 03:38:53;;;;;;;31.95;27.27;;;-2.30;99.90;;;;;;4963313;28;20051;-69
2024/01/21 03:41:20;;;;;;;34.58;29.73;;;-2.40;99.90;;;;;;4969519;28;20101;-70
2024/01/21 03:43:47;;;;;;;34.13;29.77;;;-2.50;99.90;;;;;;4969155;28;20077;-68
2024/01/21 03:46:14;;;;;;;40.78;31.23;;;-2.50;99.90;;;;;;4968238;28;20039;-71
2024/01/21 03:48:41;;;;;;;36.67;27.58;;;-2.50;99.90;;;;;;4973601;28;20042;-70
2024/01/21 03:51:14;;;;;;;31.65;27.98;;;-2.50;99.90;;;;;;4967834;28;20252;-69
2024/01/21 03:53:41;;;;;;;37.45;29.35;;;-2.50;99.90;;;;;;4969585;28;20043;-68
2024/01/21 03:56:16;;;;;;;34.05;28.58;;;-2.50;99.90;;;;;;4973590;28;21513;-71
2024/01/21 03:58:42;;;;;;;31.70;28.23;;;-2.50;99.90;;;;;;4978258;28;20690;-72
2024/01/21 04:01:09;;;;;;;33.13;26.60;;;-2.40;99.90;;;;;;4959715;28;20046;-73
2024/01/21 04:03:36;;;;;;;35.08;28.77;;;-2.40;99.90;;;;;;4964325;28;20053;-72
2024/01/21 04:06:06;;;;;;;31.30;27.63;;;-2.40;99.90;;;;;;4970200;28;20042;-73
2024/01/21 04:08:33;;;;;;;33.08;29.35;;;-2.40;99.90;;;;;;4974467;28;20067;-73
2024/01/21 04:11:00;;;;;;;33.65;28.25;;;-2.40;99.90;;;;;;4962015;28;20045;-73
2024/01/21 04:13:27;;;;;;;31.25;27.92;;;-2.50;99.90;;;;;;4972910;28;20045;-71
2024/01/21 04:15:54;;;;;;;32.30;28.13;;;-2.50;99.90;;;;;;4962123;28;20027;-72
2024/01/21 04:18:20;;;;;;;32.22;29.05;;;-2.50;99.90;;;;;;4987413;28;20050;-72
2024/01/21 04:20:47;;;;;;;33.30;29.23;;;-2.50;99.90;;;;;;4972020;28;20614;-72
2024/01/21 04:23:14;;;;;;;37.65;29.27;;;-2.50;99.90;;;;;;4964709;28;20030;-73
2024/01/21 04:25:44;;;;;;;32.40;28.50;;;-2.50;99.90;;;;;;4973645;28;20046;-72
2024/01/21 04:28:10;;;;;;;31.92;28.60;;;-2.50;99.90;;;;;;4978505;28;20050;-71
2024/01/21 04:30:39;;;;;;;34.17;28.92;;;-2.50;99.90;;;;;;4969105;28;20486;-69
2024/01/21 04:33:06;;;;;;;31.98;28.48;;;-2.50;99.90;;;;;;4969449;28;20038;-70
2024/01/21 04:35:33;;;;;;;33.03;27.70;;;-2.40;99.90;;;;;;4970692;28;20046;-71
2024/01/21 04:38:00;;;;;;;34.03;28.80;;;-2.40;99.90;;;;;;4969075;28;20038;-70
2024/01/21 04:40:27;;;;;;;33.97;27.70;;;-2.30;99.90;;;;;;4967439;28;20042;-70
2024/01/21 04:42:54;;;;;;;31.02;27.52;;;-2.20;99.90;;;;;;4962871;28;20055;-69
2024/01/21 04:45:20;;;;;;;33.20;27.73;;;-2.20;99.90;;;;;;4965439;28;20058;-71
2024/01/21 04:47:47;;;;;;;32.40;27.95;;;-2.10;99.90;;;;;;4968788;28;20480;-73
2024/01/21 04:50:14;;;;;;;31.45;27.65;;;-2.10;99.90;;;;;;4984326;28;20464;-72
2024/01/21 04:52:41;;;;;;;29.67;26.60;;;-1.90;99.90;;;;;;4970978;28;20061;-72
2024/01/21 04:55:08;;;;;;;29.90;26.80;;;-1.90;99.90;;;;;;4958107;28;20054;-72
2024/01/21 04:57:35;;;;;;;30.55;27.42;;;-1.90;99.90;;;;;;4969843;28;20047;-71
2024/01/21 05:00:02;;;;;;;34.40;27.85;;;-1.90;99.90;;;;;;4954825;28;20441;-72
2024/01/21 05:02:29;;;;;;;31.42;28.15;;;-1.80;99.90;;;;;;4967697;28;20616;-71
2024/01/21 05:04:57;;;;;;;33.13;29.60;;;-1.80;99.90;;;;;;4980554;28;20051;-72
2024/01/21 05:07:23;;;;;;;30.05;26.75;;;-1.80;99.90;;;;;;4971888;28;20161;-73
2024/01/21 05:09:53;;;;;;;32.00;27.42;;;-1.80;99.90;;;;;;4953813;28;20055;-72
2024/01/21 05:12:20;;;;;;;30.98;27.15;;;-1.70;99.90;;;;;;4956670;28;20529;-72
2024/01/21 05:14:47;;;;;;;29.98;26.83;;;-1.70;99.90;;;;;;4953135;28;20054;-72
2024/01/21 05:17:14;;;;;;;34.28;28.00;;;-1.70;99.90;;;;;;4982918;28;20695;-72
2024/01/21 05:19:44;;;;;;;31.08;27.90;;;-1.60;99.90;;;;;;4963014;28;20042;-73
2024/01/21 05:22:10;;;;;;;30.98;27.65;;;-1.60;99.90;;;;;;4956572;28;20039;-73
2024/01/21 05:24:37;;;;;;;32.35;28.13;;;-1.50;99.90;;;;;;4954368;28;20046;-72
2024/01/21 05:27:04;;;;;;;30.75;27.63;;;-1.60;99.90;;;;;;4972054;28;20074;-72
2024/01/21 05:29:31;;;;;;;30.60;27.38;;;-1.60;99.90;;;;;;4966836;28;20074;-72
2024/01/21 05:32:02;;;;;;;31.77;27.50;;;-1.50;99.90;;;;;;4970759;28;20047;-73
2024/01/21 05:34:30;;;;;;;34.42;28.08;;;-1.50;99.90;;;;;;4976405;28;20051;-73
2024/01/21 05:36:57;;;;;;;30.35;27.02;;;-1.60;99.90;;;;;;4980986;28;20058;-70
2024/01/21 05:39:23;;;;;;;29.38;26.40;;;-1.60;99.90;;;;;;4960887;28;20042;-69
2024/01/21 05:42:04;;;;;;;30.50;27.50;;;-1.50;99.90;;;;;;4990196;28;20484;-70
2024/01/21 05:44:32;;;;;;;28.27;25.35;;;-1.50;99.90;;;;;;4952052;28;20057;-70
2024/01/21 05:47:01;;;;;;;27.67;25.08;;;-1.50;99.90;;;;;;4954988;28;20043;-73
2024/01/21 05:49:30;;;;;;;28.60;25.52;;;-1.40;99.90;;;;;;4988427;28;20062;-72
2024/01/21 05:51:56;;;;;;;28.58;25.98;;;-1.40;99.90;;;;;;4971169;28;20042;-70
2024/01/21 05:54:25;;;;;;;30.20;27.15;;;-1.30;99.90;;;;;;4970848;28;20046;-76
2024/01/21 05:56:52;;;;;;;28.42;25.70;;;-1.30;99.90;;;;;;4973190;28;20078;-70
2024/01/21 05:59:20;;;;;;;28.70;25.88;;;-1.30;99.90;;;;;;4968667;28;20038;-70
2024/01/21 06:01:49;;;;;;;29.92;26.90;;;-1.10;99.90;;;;;;4971415;28;20042;-73
2024/01/21 06:04:16;;;;;;;27.58;25.00;;;-1.10;99.90;;;;;;4970185;28;20058;-72
2024/01/21 06:06:43;;;;;;;28.17;25.23;;;-1.10;99.90;;;;;;4975157;28;20054;-71
2024/01/21 06:09:11;;;;;;;27.95;25.00;;;-1.10;99.90;;;;;;4967185;28;20097;-70
2024/01/21 06:11:40;;;;;;;27.70;24.77;;;-1.00;99.90;;;;;;4972733;28;20121;-72
2024/01/21 06:14:08;;;;;;;28.08;25.20;;;-1.00;99.90;;;;;;4967725;28;20046;-68
2024/01/21 06:16:35;;;;;;;28.52;25.70;;;-1.00;99.90;;;;;;4972589;28;20093;-73
2024/01/21 06:19:02;;;;;;;29.23;26.42;;;-1.00;99.90;;;;;;4969293;28;20098;-73
2024/01/21 06:21:30;;;;;;;28.75;25.95;;;-0.90;99.90;;;;;;4971835;28;20752;-74
2024/01/21 06:23:56;;;;;;;29.05;26.30;;;-0.90;99.90;;;;;;4967902;28;20502;-71
2024/01/21 06:26:23;;;;;;;28.95;26.20;;;-1.00;99.90;;;;;;4971407;28;20132;-72
2024/01/21 06:28:51;;;;;;;28.20;25.60;;;-1.00;99.90;;;;;;4974829;28;20046;-72
2024/01/21 06:31:18;;;;;;;29.65;26.75;;;-1.00;99.90;;;;;;4966398;28;20050;-72
2024/01/21 06:33:45;;;;;;;29.90;27.13;;;-1.10;99.90;;;;;;4973007;28;20129;-72
2024/01/21 06:36:12;;;;;;;27.88;25.45;;;-1.20;99.90;;;;;;4968576;28;20567;-73
2024/01/21 06:38:39;;;;;;;29.63;26.52;;;-1.20;99.90;;;;;;4975092;28;20261;-73
2024/01/21 06:41:06;;;;;;;31.08;25.88;;;-1.20;99.90;;;;;;4969833;28;20043;-73
2024/01/21 06:43:33;;;;;;;28.13;25.33;;;-1.20;99.90;;;;;;4970892;28;20062;-73
2024/01/21 06:45:59;;;;;;;28.98;26.38;;;-1.20;99.90;;;;;;4978242;28;20038;-74
2024/01/21 06:48:26;;;;;;;28.52;25.67;;;-1.20;99.90;;;;;;4973223;28;20178;-73
2024/01/21 06:50:53;;;;;;;30.08;27.17;;;-1.20;99.90;;;;;;4973911;28;20078;-73
2024/01/21 06:53:20;;;;;;;30.83;27.52;;;-1.20;99.90;;;;;;4965131;28;20680;-73
2024/01/21 06:55:47;;;;;;;30.73;27.83;;;-1.20;99.90;;;;;;4973151;28;20034;-72
2024/01/21 06:58:13;;;;;;;30.77;27.90;;;-1.20;99.90;;;;;;4968502;28;20050;-69
2024/01/21 07:00:40;;;;;;;30.05;27.13;;;-1.20;99.90;;;;;;4973764;28;20606;-71
2024/01/21 07:03:07;;;;;;;31.02;27.92;;;-1.20;99.90;;;;;;4966051;28;20062;-70
2024/01/21 07:05:34;;;;;;;32.90;28.25;;;-1.20;99.90;;;;;;4968201;28;20054;-73
2024/01/21 07:08:01;;;;;;;30.08;27.17;;;-1.20;99.90;;;;;;4970653;28;20042;-71
2024/01/21 07:10:28;;;;;;;30.50;27.67;;;-1.20;99.90;;;;;;4969686;28;20201;-73
2024/01/21 07:12:56;;;;;;;32.00;28.83;;;-1.20;99.90;;;;;;4974756;28;20445;-73
2024/01/21 07:15:24;;;;;;;31.42;28.42;;;-1.20;99.90;;;;;;4963418;28;20054;-70
2024/01/21 07:17:51;;;;;;;32.75;27.95;;;-1.20;99.90;;;;;;4986787;28;20042;-70
2024/01/21 07:20:17;;;;;;;33.47;29.85;;;-1.10;99.90;;;;;;4982077;28;20073;-70
2024/01/21 07:22:44;;;;;;;35.28;31.30;;;-1.20;99.90;;;;;;4986028;28;20051;-72
2024/01/21 07:25:14;;;;;;;31.92;28.60;;;-1.20;99.90;;;;;;4964298;28;20050;-72
2024/01/21 07:27:42;;;;;;;36.33;32.92;;;-1.20;99.90;;;;;;4985596;28;20081;-71
2024/01/21 07:30:12;;;;;;;30.63;27.35;;;-1.20;99.90;;;;;;4969167;28;20039;-70
2024/01/21 07:32:40;;;;;;;30.70;27.73;;;-1.20;99.90;;;;;;4982513;28;20584;-70
2024/01/21 07:35:10;;;;;;;32.13;28.90;;;-1.20;99.90;;;;;;4966951;28;20074;-70
2024/01/21 07:37:37;;;;;;;28.77;26.02;;;-1.20;99.90;;;;;;4985696;28;20137;-73
2024/01/21 07:40:06;;;;;;;31.42;28.15;;;-1.20;99.90;;;;;;4948498;28;20038;-69
2024/01/21 07:42:33;;;;;;;30.17;27.08;;;-1.20;99.90;;;;;;4969816;28;20413;-71
2024/01/21 07:45:00;;;;;;;31.95;27.92;;;-1.20;99.90;;;;;;4962626;28;20153;-68
2024/01/21 07:47:27;;;;;;;28.92;25.73;;;-1.20;99.90;;;;;;4969786;28;20050;-72
2024/01/21 07:49:54;;;;;;;34.17;30.58;;;-1.20;99.90;;;;;;4972650;28;20133;-69
2024/01/21 07:52:21;;;;;;;30.95;27.65;;;-1.20;99.90;;;;;;4959750;28;20050;-70
2024/01/21 07:54:48;;;;;;;34.33;28.77;;;-1.20;99.90;;;;;;4970109;28;20058;-69
2024/01/21 07:57:15;;;;;;;28.77;25.98;;;-1.20;99.90;;;;;;4949519;28;20051;-70
2024/01/21 07:59:42;;;;;;;33.63;30.42;;;-1.10;99.90;;;;;;4977369;28;20057;-70
2024/01/21 08:02:09;;;;;;;36.38;32.72;;;-1.10;99.90;;;;;;4966440;28;20601;-69
2024/01/21 08:04:36;;;;;;;32.60;29.50;;;-1.10;99.90;;;;;;4969181;28;20136;-71
2024/01/21 08:07:03;;;;;;;33.95;30.75;;;-1.00;99.90;;;;;;4952276;28;20679;-69
2024/01/21 08:09:30;;;;;;;34.33;30.80;;;-1.00;99.90;;;;;;4963492;28;20054;-72
2024/01/21 08:11:57;;;;;;;34.33;30.77;;;-0.90;99.90;;;;;;4972739;28;20046;-70
2024/01/21 08:14:24;;;;;;;33.08;29.90;;;-0.90;99.90;;;;;;4962833;28;20054;-69
2024/01/21 08:16:50;;;;;;;33.75;30.48;;;-0.90;99.90;;;;;;4969751;28;20046;-70
2024/01/21 08:19:19;;;;;;;31.73;28.60;;;-0.90;99.90;;;;;;4965423;28;20493;-69
2024/01/21 08:21:47;;;;;;;32.60;29.48;;;-0.90;99.90;;;;;;4969948;28;20046;-72
2024/01/21 08:24:14;;;;;;;43.70;34.63;;;-0.90;99.90;;;;;;4963482;28;20074;-72
2024/01/21 08:26:42;;;;;;;33.22;30.15;;;-1.00;99.90;;;;;;4971368;28;20174;-69
2024/01/21 08:29:09;;;;;;;33.95;30.63;;;-1.00;99.90;;;;;;4964596;28;20052;-69
2024/01/21 08:31:46;;;;;;;32.60;29.40;;;-1.10;99.90;;;;;;4965553;28;20046;-71
2024/01/21 08:34:13;;;;;;;36.55;33.25;;;-1.10;99.90;;;;;;4975932;28;20077;-72
2024/01/21 08:36:40;;;;;;;34.45;30.88;;;-1.10;99.90;;;;;;4949668;28;20076;-70
2024/01/21 08:39:09;;;;;;;33.17;29.88;;;-1.10;99.90;;;;;;4957110;28;20050;-69
2024/01/21 08:41:36;;;;;;;32.92;29.52;;;-1.10;99.90;;;;;;4958624;28;20072;-68
2024/01/21 08:44:03;;;;;;;31.40;28.27;;;-1.00;99.90;;;;;;4959867;28;20092;-70
2024/01/21 08:46:30;;;;;;;32.92;29.45;;;-1.00;99.90;;;;;;4964905;28;20124;-69
2024/01/21 08:48:57;;;;;;;32.08;28.90;;;-1.00;99.90;;;;;;4970957;28;20050;-73
2024/01/21 08:51:24;;;;;;;34.47;30.83;;;-1.00;99.90;;;;;;4966902;28;22119;-69
2024/01/21 08:53:57;;;;;;;33.42;29.98;;;-1.00;99.90;;;;;;4966463;28;20035;-72
2024/01/21 08:56:25;;;;;;;36.22;31.50;;;-1.00;99.90;;;;;;4964067;28;20712;-72
2024/01/21 08:58:52;;;;;;;35.80;30.95;;;-0.90;99.90;;;;;;4961553;28;20640;-70
2024/01/21 09:01:20;;;;;;;33.45;30.00;;;-0.90;99.90;;;;;;4953614;28;20105;-70
2024/01/21 09:03:48;;;;;;;35.78;31.85;;;-0.90;99.90;;;;;;4952570;28;20078;-71
2024/01/21 09:06:15;;;;;;;38.90;34.90;;;-0.90;99.90;;;;;;4966668;28;20061;-72
2024/01/21 09:08:42;;;;;;;32.72;29.30;;;-0.80;99.90;;;;;;4968712;28;20100;-72
2024/01/21 09:11:09;;;;;;;35.00;30.98;;;-0.80;99.90;;;;;;4965248;28;20046;-74
2024/01/21 09:13:36;;;;;;;36.53;31.27;;;-0.80;99.90;;;;;;4967871;28;20338;-74
2024/01/21 09:16:03;;;;;;;33.50;30.00;;;-0.70;99.90;;;;;;4961875;28;20601;-72
2024/01/21 09:18:30;;;;;;;39.35;31.33;;;-0.70;99.90;;;;;;4967374;28;20062;-70
2024/01/21 09:20:58;;;;;;;34.40;30.77;;;-0.60;99.90;;;;;;4972493;28;20039;-74
2024/01/21 09:23:26;;;;;;;33.40;30.02;;;-0.50;99.90;;;;;;4963202;28;20521;-73
2024/01/21 09:25:52;;;;;;;36.78;31.35;;;-0.60;99.90;;;;;;4968794;28;20117;-73
2024/01/21 09:28:19;;;;;;;36.22;32.53;;;-0.50;99.90;;;;;;4960542;28;20046;-75
2024/01/21 09:30:46;;;;;;;86.88;51.08;;;-0.50;99.90;;;;;;4965064;28;20057;-73
2024/01/21 09:33:13;;;;;;;44.10;34.80;;;-0.50;99.90;;;;;;4965993;28;20097;-77
2024/01/21 09:35:40;;;;;;;37.53;33.47;;;-0.40;99.90;;;;;;4951694;28;20043;-74
2024/01/21 09:38:10;;;;;;;40.30;36.42;;;-0.40;99.90;;;;;;4966222;28;20060;-76
2024/01/21 09:40:38;;;;;;;38.17;32.90;;;-0.40;99.90;;;;;;4986363;28;20066;-74
2024/01/21 09:43:04;;;;;;;33.67;30.23;;;-0.40;99.90;;;;;;4967604;28;20081;-72
2024/01/21 09:45:34;;;;;;;42.50;35.15;;;-0.40;99.90;;;;;;4958866;28;20051;-72
2024/01/21 09:48:01;;;;;;;38.08;32.35;;;-0.30;99.90;;;;;;4970141;28;20042;-73
2024/01/21 09:50:29;;;;;;;38.35;33.55;;;-0.20;99.90;;;;;;4962755;28;20116;-73
2024/01/21 09:52:57;;;;;;;40.05;35.08;;;-0.10;99.90;;;;;;4970849;28;20071;-72
2024/01/21 09:55:23;;;;;;;42.75;38.10;;;0.00;99.90;;;;;;4957731;28;20117;-72
2024/01/21 09:57:51;;;;;;;36.60;32.80;;;0.00;99.90;;;;;;4972177;28;20315;-74
2024/01/21 10:00:19;;;;;;;38.17;33.63;;;-0.10;99.90;;;;;;4972265;28;20128;-73
2024/01/21 10:02:50;;;;;;;37.90;32.38;;;-0.10;99.90;;;;;;4971614;28;20106;-74
2024/01/21 10:05:16;;;;;;;38.15;33.38;;;-0.20;99.90;;;;;;4969372;28;20057;-72
2024/01/21 10:07:43;;;;;;;37.20;33.15;;;-0.30;99.90;;;;;;4969490;28;20077;-73
2024/01/21 10:10:12;;;;;;;41.75;34.40;;;-0.40;99.90;;;;;;4983484;28;20046;-73
2024/01/21 10:12:40;;;;;;;37.83;33.30;;;-0.50;99.90;;;;;;4975287;28;20034;-73
2024/01/21 10:15:07;;;;;;;38.40;33.10;;;-0.50;99.90;;;;;;4968340;28;20046;-73
2024/01/21 10:17:34;;;;;;;41.42;33.97;;;-0.50;99.90;;;;;;4967534;28;20642;-73
2024/01/21 10:20:01;;;;;;;35.83;31.95;;;-0.50;99.90;;;;;;4955878;28;20582;-72
2024/01/21 10:22:28;;;;;;;37.95;33.83;;;-0.50;99.90;;;;;;4969534;28;20076;-76
2024/01/21 10:24:58;;;;;;;37.97;32.88;;;-0.60;99.90;;;;;;4970258;28;20051;-72
2024/01/21 10:27:26;;;;;;;38.42;34.40;;;-0.50;99.90;;;;;;4966356;28;20088;-69
2024/01/21 10:29:53;;;;;;;38.33;34.03;;;-0.50;99.90;;;;;;4986073;28;20046;-70
2024/01/21 10:32:20;;;;;;;41.08;33.75;;;-0.60;99.90;;;;;;4977947;28;20074;-70
2024/01/21 10:34:52;;;;;;;40.05;34.47;;;-0.60;99.90;;;;;;4989085;28;20073;-70
2024/01/21 10:37:19;;;;;;;75.40;48.47;;;-0.70;99.90;;;;;;4964249;28;20046;-71
2024/01/21 10:39:48;;;;;;;37.65;33.42;;;-0.60;99.90;;;;;;4952647;28;20049;-70
2024/01/21 10:42:16;;;;;;;52.65;47.55;;;-0.60;99.90;;;;;;4966855;28;20101;-70
2024/01/21 10:44:44;;;;;;;48.38;43.47;;;-0.50;99.90;;;;;;4963868;28;20105;-73
2024/01/21 10:47:12;;;;;;;46.17;41.35;;;-0.30;99.90;;;;;;4972552;28;20042;-70
2024/01/21 10:49:42;;;;;;;43.47;38.95;;;-0.10;99.90;;;;;;4970085;28;20072;-72
2024/01/21 10:52:10;;;;;;;43.10;38.40;;;-0.10;99.90;;;;;;4972658;28;20133;-71
2024/01/21 10:54:37;;;;;;;42.53;38.15;;;-0.10;99.90;;;;;;4976510;28;20042;-71
2024/01/21 10:57:04;;;;;;;44.53;39.97;;;0.00;99.90;;;;;;4973334;28;20100;-71
2024/01/21 10:59:31;;;;;;;44.92;40.13;;;0.00;99.90;;;;;;4969571;28;20050;-71
2024/01/21 11:02:00;;;;;;;47.85;41.58;;;0.10;99.90;;;;;;4970268;28;20039;-72
2024/01/21 11:04:27;;;;;;;43.25;38.92;;;0.30;99.90;;;;;;4967148;28;20141;-73
2024/01/21 11:06:54;;;;;;;40.30;36.25;;;0.20;99.90;;;;;;4972811;28;20042;-72
2024/01/21 11:09:22;;;;;;;41.40;37.47;;;0.00;99.90;;;;;;4962138;28;20420;-73
2024/01/21 11:11:51;;;;;;;48.40;43.95;;;-0.10;99.90;;;;;;4981938;28;20054;-69
2024/01/21 11:14:32;;;;;;;48.65;43.78;;;0.00;99.90;;;;;;4962402;28;20047;-71
2024/01/21 11:17:12;;;;;;;45.65;40.92;;;0.30;99.90;;;;;;4972112;28;20755;-72
2024/01/21 11:19:53;;;;;;;49.75;44.92;;;0.50;99.90;;;;;;4968273;28;20043;-71
2024/01/21 11:22:25;;;;;;;45.50;40.85;;;0.60;99.90;;;;;;4965947;28;20042;-71
2024/01/21 11:24:55;;;;;;;45.33;40.55;;;0.40;99.90;;;;;;4970881;28;20143;-72
2024/01/21 11:27:26;;;;;;;49.08;43.85;;;0.20;99.90;;;;;;4969492;28;20050;-70
2024/01/21 11:29:57;;;;;;;44.90;40.47;;;0.10;99.90;;;;;;4988200;28;20046;-71
2024/01/21 11:32:30;;;;;;;44.20;39.97;;;0.10;99.90;;;;;;4965092;28;20046;-71
2024/01/21 11:35:13;;;;;;;46.30;41.45;;;0.10;99.90;;;;;;4963156;28;20046;-70
2024/01/21 11:37:40;;;;;;;45.08;40.28;;;0.00;99.90;;;;;;4968818;28;20047;-70
2024/01/21 11:40:08;;;;;;;48.97;43.50;;;0.00;99.90;;;;;;4964335;28;20152;-70
2024/01/21 11:42:36;;;;;;;49.30;43.85;;;-0.10;99.90;;;;;;4950469;28;20042;-71
2024/01/21 11:45:05;;;;;;;50.78;45.00;;;0.00;99.90;;;;;;4971059;28;20046;-71
2024/01/21 11:47:32;;;;;;;61.00;52.92;;;0.00;99.90;;;;;;4960466;28;20050;-71
2024/01/21 11:50:00;;;;;;;53.63;45.55;;;0.10;99.90;;;;;;4977511;28;20073;-70
2024/01/21 11:52:27;;;;;;;49.38;43.80;;;0.20;99.90;;;;;;4961667;28;20050;-71
2024/01/21 11:54:54;;;;;;;48.85;43.53;;;0.30;99.90;;;;;;4969090;28;20057;-71
2024/01/21 11:57:21;;;;;;;54.75;44.45;;;0.40;99.90;;;;;;4966315;28;20049;-72
2024/01/21 11:59:47;;;;;;;55.33;44.38;;;0.30;99.90;;;;;;4964886;28;20629;-70
2024/01/21 12:02:15;;;;;;;50.15;44.58;;;0.20;99.90;;;;;;4970081;28;20069;-71
2024/01/21 12:04:46;;;;;;;44.10;39.42;;;0.10;99.90;;;;;;4975455;28;20038;-71
2024/01/21 12:07:13;;;;;;;46.67;39.40;;;0.10;99.90;;;;;;4974321;28;20042;-71
2024/01/21 12:09:40;;;;;;;67.03;50.45;;;0.10;99.90;;;;;;4968236;28;20131;-71
2024/01/21 12:12:08;;;;;;;47.95;41.42;;;0.20;99.90;;;;;;4968190;28;20055;-72
2024/01/21 12:14:36;;;;;;;50.70;45.30;;;0.20;99.90;;;;;;4961269;28;20057;-71
2024/01/21 12:17:03;;;;;;;52.58;45.45;;;0.30;99.90;;;;;;4966644;28;20053;-72
2024/01/21 12:19:30;;;;;;;43.97;39.42;;;0.30;99.90;;;;;;4961325;28;20050;-72
2024/01/21 12:21:57;;;;;;;46.88;41.80;;;0.30;99.90;;;;;;4958808;28;20049;-70
2024/01/21 12:24:24;;;;;;;47.75;42.67;;;0.30;99.90;;;;;;4948010;28;20772;-71
2024/01/21 12:26:55;;;;;;;63.38;54.45;;;0.30;99.90;;;;;;4962764;28;20047;-72
2024/01/21 12:29:22;;;;;;;59.88;44.70;;;0.20;99.90;;;;;;4954908;28;20050;-71